sensor_id;sensor_type;location;lat;lon;timestamp;pressure;altitude;pressure_sealevel;temperature;humidity
12664;BME280;6396;58.490;15.528;2023-03-01T00:02:22;101909.22;;;3.08;100.00
12664;BME280;6396;58.490;15.528;2023-03-01T00:04:48;102001.94;;;3.29;100.00
12664;BME280;6396;58.490;15.528;2023-03-01T00:07:15;102103.69;;;3.93;100.00
12664;BME280;6396;58.490;15.528;2023-03-01T00:09:44;102095.38;;;4.09;100.00
12664;BME280;6396;58.490;15.528;2023-03-01T00:12:11;101890.16;;;2.78;100.00
12664;BME280;6396;58.490;15.528;2023-03-01T00:14:38;101592.53;;;1.20;100.00
12664;BME280;6396;58.490;15.528;2023-03-01T00:17:05;101783.66;;;2.26;100.00
12664;BME280;6396;58.490;15.528;2023-03-01T00:19:32;101906.25;;;2.62;100.00
12664;BME280;6396;58.490;15.528;2023-03-01T00:21:58;101803.56;;;2.24;100.00
12664;BME280;6396;58.490;15.528;2023-03-01T00:24:25;102199.09;;;4.12;100.00
12664;BME280;6396;58.490;15.528;2023-03-01T00:26:54;102029.59;;;3.56;100.00
12664;BME280;6396;58.490;15.528;2023-03-01T00:29:22;101356.88;;;-0.65;100.00
12664;BME280;6396;58.490;15.528;2023-03-01T00:31:49;101835.06;;;2.32;100.00
12664;BME280;6396;58.490;15.528;2023-03-01T00:34:16;102129.34;;;4.09;100.00
12664;BME280;6396;58.490;15.528;2023-03-01T00:36:43;102078.44;;;3.60;100.00
12664;BME280;6396;58.490;15.528;2023-03-01T00:39:13;102121.41;;;4.06;100.00
12664;BME280;6396;58.490;15.528;2023-03-01T00:41:40;101854.69;;;2.50;100.00
12664;BME280;6396;58.490;15.528;2023-03-01T00:44:09;102118.66;;;4.00;100.00
12664;BME280;6396;58.490;15.528;2023-03-01T00:46:36;102161.25;;;3.98;100.00
12664;BME280;6396;58.490;15.528;2023-03-01T00:49:03;102144.06;;;3.73;100.00
12664;BME280;6396;58.490;15.528;2023-03-01T00:51:30;101630.84;;;0.38;100.00
12664;BME280;6396;58.490;15.528;2023-03-01T00:53:59;101992.44;;;2.99;100.00
12664;BME280;6396;58.490;15.528;2023-03-01T00:56:26;102124.59;;;3.93;100.00
12664;BME280;6396;58.490;15.528;2023-03-01T00:58:53;102215.09;;;3.91;100.00
12664;BME280;6396;58.490;15.528;2023-03-01T01:01:23;102091.69;;;3.67;100.00
12664;BME280;6396;58.490;15.528;2023-03-01T01:03:54;102095.19;;;3.69;100.00
12664;BME280;6396;58.490;15.528;2023-03-01T01:06:23;101967.97;;;2.94;100.00
12664;BME280;6396;58.490;15.528;2023-03-01T01:08:50;102132.19;;;3.84;100.00
12664;BME280;6396;58.490;15.528;2023-03-01T01:11:18;102003.31;;;2.83;100.00
12664;BME280;6396;58.490;15.528;2023-03-01T01:13:46;102137.41;;;3.84;100.00
12664;BME280;6396;58.490;15.528;2023-03-01T01:16:15;102034.09;;;3.27;100.00
12664;BME280;6396;58.490;15.528;2023-03-01T01:18:44;101650.34;;;1.10;100.00
12664;BME280;6396;58.490;15.528;2023-03-01T01:21:14;101851.28;;;2.21;100.00
12664;BME280;6396;58.490;15.528;2023-03-01T01:23:42;101766.69;;;1.76;100.00
12664;BME280;6396;58.490;15.528;2023-03-01T01:26:11;101627.91;;;0.28;100.00
12664;BME280;6396;58.490;15.528;2023-03-01T01:28:38;101641.06;;;0.90;100.00
12664;BME280;6396;58.490;15.528;2023-03-01T01:31:06;102008.47;;;2.81;100.00
12664;BME280;6396;58.490;15.528;2023-03-01T01:33:33;101816.31;;;1.82;100.00
12664;BME280;6396;58.490;15.528;2023-03-01T01:36:02;101843.22;;;2.12;100.00
12664;BME280;6396;58.490;15.528;2023-03-01T01:38:29;102051.16;;;2.83;100.00
12664;BME280;6396;58.490;15.528;2023-03-01T01:40:56;102095.72;;;3.55;100.00
12664;BME280;6396;58.490;15.528;2023-03-01T01:43:24;101734.16;;;1.31;100.00
12664;BME280;6396;58.490;15.528;2023-03-01T01:45:53;101565.56;;;-0.01;100.00
12664;BME280;6396;58.490;15.528;2023-03-01T01:48:24;101581.25;;;0.59;100.00
12664;BME280;6396;58.490;15.528;2023-03-01T01:51:09;102159.03;;;3.46;100.00
12664;BME280;6396;58.490;15.528;2023-03-01T01:53:38;101775.00;;;1.63;100.00
12664;BME280;6396;58.490;15.528;2023-03-01T01:56:08;102100.06;;;3.23;100.00
12664;BME280;6396;58.490;15.528;2023-03-01T01:58:38;102175.28;;;3.67;100.00
12664;BME280;6396;58.490;15.528;2023-03-01T02:01:05;101395.44;;;-1.02;100.00
12664;BME280;6396;58.490;15.528;2023-03-01T02:03:34;101652.16;;;0.84;100.00
12664;BME280;6396;58.490;15.528;2023-03-01T02:06:12;102064.28;;;3.19;100.00
12664;BME280;6396;58.490;15.528;2023-03-01T02:08:42;102176.78;;;3.59;100.00
12664;BME280;6396;58.490;15.528;2023-03-01T02:11:11;102005.31;;;2.62;100.00
12664;BME280;6396;58.490;15.528;2023-03-01T02:13:40;101879.66;;;1.81;100.00
12664;BME280;6396;58.490;15.528;2023-03-01T02:16:08;102157.28;;;3.47;100.00
12664;BME280;6396;58.490;15.528;2023-03-01T02:18:37;101518.69;;;-0.05;100.00
12664;BME280;6396;58.490;15.528;2023-03-01T02:21:13;102128.78;;;3.54;100.00
12664;BME280;6396;58.490;15.528;2023-03-01T02:23:42;102155.72;;;3.53;100.00
12664;BME280;6396;58.490;15.528;2023-03-01T02:26:17;101673.38;;;0.98;100.00
12664;BME280;6396;58.490;15.528;2023-03-01T02:28:47;101825.31;;;1.34;100.00
12664;BME280;6396;58.490;15.528;2023-03-01T02:31:16;101583.47;;;0.19;100.00
12664;BME280;6396;58.490;15.528;2023-03-01T02:34:01;102060.75;;;2.86;100.00
12664;BME280;6396;58.490;15.528;2023-03-01T02:36:34;101575.72;;;0.20;100.00
12664;BME280;6396;58.490;15.528;2023-03-01T02:39:04;102170.88;;;3.35;100.00
12664;BME280;6396;58.490;15.528;2023-03-01T02:41:35;102127.50;;;3.40;100.00
12664;BME280;6396;58.490;15.528;2023-03-01T02:44:05;101825.38;;;1.65;100.00
12664;BME280;6396;58.490;15.528;2023-03-01T02:46:32;101424.44;;;-1.37;100.00
12664;BME280;6396;58.490;15.528;2023-03-01T02:48:59;101734.63;;;0.62;100.00
12664;BME280;6396;58.490;15.528;2023-03-01T02:51:42;100981.03;;;-3.22;100.00
12664;BME280;6396;58.490;15.528;2023-03-01T02:54:17;102159.28;;;3.25;100.00
12664;BME280;6396;58.490;15.528;2023-03-01T02:56:47;102156.94;;;3.34;100.00
12664;BME280;6396;58.490;15.528;2023-03-01T02:59:16;102122.34;;;3.10;100.00
12664;BME280;6396;58.490;15.528;2023-03-01T03:01:44;101892.59;;;1.50;100.00
12664;BME280;6396;58.490;15.528;2023-03-01T03:04:15;101450.06;;;-1.45;100.00
12664;BME280;6396;58.490;15.528;2023-03-01T03:06:43;101154.44;;;-2.38;100.00
12664;BME280;6396;58.490;15.528;2023-03-01T03:09:11;101827.53;;;1.50;100.00
12664;BME280;6396;58.490;15.528;2023-03-01T03:11:38;101280.84;;;-1.97;100.00
12664;BME280;6396;58.490;15.528;2023-03-01T03:14:07;101607.63;;;-0.11;100.00
12664;BME280;6396;58.490;15.528;2023-03-01T03:16:40;101650.44;;;0.29;100.00
12664;BME280;6396;58.490;15.528;2023-03-01T03:19:07;101422.84;;;-1.08;100.00
12664;BME280;6396;58.490;15.528;2023-03-01T03:21:34;101845.25;;;1.35;100.00
12664;BME280;6396;58.490;15.528;2023-03-01T03:24:02;101869.44;;;1.31;100.00
12664;BME280;6396;58.490;15.528;2023-03-01T03:26:29;101225.44;;;-2.29;100.00
12664;BME280;6396;58.490;15.528;2023-03-01T03:28:57;101883.91;;;1.23;100.00
12664;BME280;6396;58.490;15.528;2023-03-01T03:31:24;101830.66;;;1.12;100.00
12664;BME280;6396;58.490;15.528;2023-03-01T03:33:52;102144.25;;;2.31;100.00
12664;BME280;6396;58.490;15.528;2023-03-01T03:36:23;102149.66;;;2.93;100.00
12664;BME280;6396;58.490;15.528;2023-03-01T03:38:50;102132.50;;;2.44;100.00
12664;BME280;6396;58.490;15.528;2023-03-01T03:41:18;101542.13;;;-0.55;100.00
12664;BME280;6396;58.490;15.528;2023-03-01T03:43:44;102099.22;;;2.63;100.00
12664;BME280;6396;58.490;15.528;2023-03-01T03:46:12;102056.81;;;2.41;100.00
12664;BME280;6396;58.490;15.528;2023-03-01T03:48:41;102101.03;;;2.66;100.00
12664;BME280;6396;58.490;15.528;2023-03-01T03:51:12;102151.91;;;2.81;100.00
12664;BME280;6396;58.490;15.528;2023-03-01T03:53:40;101887.94;;;1.13;100.00
12664;BME280;6396;58.490;15.528;2023-03-01T03:56:07;101174.38;;;-3.06;100.00
12664;BME280;6396;58.490;15.528;2023-03-01T03:58:35;101278.44;;;-2.40;100.00
12664;BME280;6396;58.490;15.528;2023-03-01T04:01:02;102133.03;;;2.90;100.00
12664;BME280;6396;58.490;15.528;2023-03-01T04:03:32;101246.34;;;-2.70;100.00
12664;BME280;6396;58.490;15.528;2023-03-01T04:06:02;102247.56;;;2.82;100.00
12664;BME280;6396;58.490;15.528;2023-03-01T04:08:33;101755.56;;;0.66;100.00
12664;BME280;6396;58.490;15.528;2023-03-01T04:11:04;101644.47;;;0.05;100.00
12664;BME280;6396;58.490;15.528;2023-03-01T04:14:13;101643.44;;;-0.01;100.00
12664;BME280;6396;58.490;15.528;2023-03-01T04:17:24;101241.88;;;-2.27;100.00
12664;BME280;6396;58.490;15.528;2023-03-01T04:20:28;101206.91;;;-2.41;100.00
12664;BME280;6396;58.490;15.528;2023-03-01T04:23:01;101235.06;;;-2.72;100.00
12664;BME280;6396;58.490;15.528;2023-03-01T04:26:02;101541.25;;;-0.56;100.00
12664;BME280;6396;58.490;15.528;2023-03-01T04:28:52;101804.69;;;0.85;100.00
12664;BME280;6396;58.490;15.528;2023-03-01T04:31:19;102051.31;;;2.03;100.00
12664;BME280;6396;58.490;15.528;2023-03-01T04:33:48;101770.41;;;0.70;100.00
12664;BME280;6396;58.490;15.528;2023-03-01T04:36:17;102130.88;;;2.47;100.00
12664;BME280;6396;58.490;15.528;2023-03-01T04:38:45;101784.44;;;0.24;100.00
12664;BME280;6396;58.490;15.528;2023-03-01T04:41:16;101822.72;;;0.81;100.00
12664;BME280;6396;58.490;15.528;2023-03-01T04:43:44;101641.75;;;-0.74;100.00
12664;BME280;6396;58.490;15.528;2023-03-01T04:46:12;101113.72;;;-3.17;100.00
12664;BME280;6396;58.490;15.528;2023-03-01T04:48:41;102167.03;;;2.65;100.00
12664;BME280;6396;58.490;15.528;2023-03-01T04:51:08;102079.97;;;2.03;100.00
12664;BME280;6396;58.490;15.528;2023-03-01T04:53:39;102043.88;;;1.61;100.00
12664;BME280;6396;58.490;15.528;2023-03-01T04:56:06;101738.06;;;-0.40;100.00
12664;BME280;6396;58.490;15.528;2023-03-01T04:58:35;101254.81;;;-2.50;100.00
12664;BME280;6396;58.490;15.528;2023-03-01T05:01:08;102124.66;;;2.44;100.00
12664;BME280;6396;58.490;15.528;2023-03-01T05:03:41;101564.69;;;-0.78;100.00
12664;BME280;6396;58.490;15.528;2023-03-01T05:06:08;101642.69;;;-1.19;100.00
12664;BME280;6396;58.490;15.528;2023-03-01T05:08:36;101908.03;;;0.67;100.00
12664;BME280;6396;58.490;15.528;2023-03-01T05:11:03;101878.25;;;0.83;100.00
12664;BME280;6396;58.490;15.528;2023-03-01T05:13:30;102161.16;;;2.44;100.00
12664;BME280;6396;58.490;15.528;2023-03-01T05:16:00;101383.28;;;-2.02;100.00
12664;BME280;6396;58.490;15.528;2023-03-01T05:18:28;102010.19;;;1.40;100.00
12664;BME280;6396;58.490;15.528;2023-03-01T05:21:01;101661.94;;;-0.40;100.00
12664;BME280;6396;58.490;15.528;2023-03-01T05:23:29;101744.56;;;-0.04;100.00
12664;BME280;6396;58.490;15.528;2023-03-01T05:25:57;101546.31;;;-1.09;100.00
12664;BME280;6396;58.490;15.528;2023-03-01T05:28:26;101818.50;;;-0.16;100.00
12664;BME280;6396;58.490;15.528;2023-03-01T05:30:53;102173.53;;;2.24;100.00
12664;BME280;6396;58.490;15.528;2023-03-01T05:33:22;101032.03;;;-4.07;100.00
12664;BME280;6396;58.490;15.528;2023-03-01T05:35:50;101188.56;;;-3.17;100.00
12664;BME280;6396;58.490;15.528;2023-03-01T05:38:20;101352.53;;;-3.06;100.00
12664;BME280;6396;58.490;15.528;2023-03-01T05:40:49;101556.25;;;-1.21;100.00
12664;BME280;6396;58.490;15.528;2023-03-01T05:43:17;101897.13;;;0.77;100.00
12664;BME280;6396;58.490;15.528;2023-03-01T05:45:44;102326.22;;;2.19;100.00
12664;BME280;6396;58.490;15.528;2023-03-01T05:48:12;102181.28;;;2.21;100.00
12664;BME280;6396;58.490;15.528;2023-03-01T05:50:42;101687.03;;;-0.41;100.00
12664;BME280;6396;58.490;15.528;2023-03-01T05:53:11;101539.59;;;-1.28;100.00
12664;BME280;6396;58.490;15.528;2023-03-01T05:55:38;101928.25;;;0.51;100.00
12664;BME280;6396;58.490;15.528;2023-03-01T05:58:07;102152.53;;;2.18;100.00
12664;BME280;6396;58.490;15.528;2023-03-01T06:00:35;102028.19;;;1.33;100.00
12664;BME280;6396;58.490;15.528;2023-03-01T06:03:05;102148.88;;;2.13;100.00
12664;BME280;6396;58.490;15.528;2023-03-01T06:05:45;101857.25;;;0.52;100.00
12664;BME280;6396;58.490;15.528;2023-03-01T06:08:12;102055.94;;;1.34;100.00
12664;BME280;6396;58.490;15.528;2023-03-01T06:10:39;101942.09;;;0.75;100.00
12664;BME280;6396;58.490;15.528;2023-03-01T06:13:07;101862.22;;;0.46;100.00
12664;BME280;6396;58.490;15.528;2023-03-01T06:15:34;102110.00;;;1.42;100.00
12664;BME280;6396;58.490;15.528;2023-03-01T06:18:01;101550.13;;;-1.23;100.00
12664;BME280;6396;58.490;15.528;2023-03-01T06:20:28;102065.91;;;1.72;100.00
12664;BME280;6396;58.490;15.528;2023-03-01T06:22:57;101954.16;;;0.98;100.00
12664;BME280;6396;58.490;15.528;2023-03-01T06:25:26;102179.34;;;2.15;100.00
12664;BME280;6396;58.490;15.528;2023-03-01T06:27:55;101833.44;;;0.15;100.00
12664;BME280;6396;58.490;15.528;2023-03-01T06:30:23;102121.25;;;1.91;100.00
12664;BME280;6396;58.490;15.528;2023-03-01T06:32:51;102205.53;;;2.18;100.00
12664;BME280;6396;58.490;15.528;2023-03-01T06:35:19;101554.66;;;-1.18;100.00
12664;BME280;6396;58.490;15.528;2023-03-01T06:37:47;101861.03;;;0.61;100.00
12664;BME280;6396;58.490;15.528;2023-03-01T06:40:16;102167.06;;;2.38;100.00
12664;BME280;6396;58.490;15.528;2023-03-01T06:42:47;102127.84;;;2.07;100.00
12664;BME280;6396;58.490;15.528;2023-03-01T06:45:15;101992.13;;;1.18;100.00
12664;BME280;6396;58.490;15.528;2023-03-01T06:47:42;101839.81;;;-0.01;100.00
12664;BME280;6396;58.490;15.528;2023-03-01T06:50:10;102196.91;;;2.48;100.00
12664;BME280;6396;58.490;15.528;2023-03-01T06:52:37;102205.78;;;2.53;100.00
12664;BME280;6396;58.490;15.528;2023-03-01T06:55:04;102166.88;;;2.59;100.00
12664;BME280;6396;58.490;15.528;2023-03-01T06:57:33;102127.19;;;2.14;100.00
12664;BME280;6396;58.490;15.528;2023-03-01T06:59:59;101935.78;;;1.19;100.00
12664;BME280;6396;58.490;15.528;2023-03-01T07:02:26;101788.84;;;0.26;100.00
12664;BME280;6396;58.490;15.528;2023-03-01T07:04:53;102182.38;;;2.82;100.00
12664;BME280;6396;58.490;15.528;2023-03-01T07:07:20;102201.75;;;2.90;100.00
12664;BME280;6396;58.490;15.528;2023-03-01T07:09:48;102218.38;;;2.94;100.00
12664;BME280;6396;58.490;15.528;2023-03-01T07:12:15;101904.00;;;1.27;100.00
12664;BME280;6396;58.490;15.528;2023-03-01T07:14:44;102224.94;;;3.09;100.00
12664;BME280;6396;58.490;15.528;2023-03-01T07:17:11;102182.25;;;3.37;100.00
12664;BME280;6396;58.490;15.528;2023-03-01T07:19:38;102021.34;;;3.75;100.00
12664;BME280;6396;58.490;15.528;2023-03-01T07:22:05;102157.28;;;6.19;100.00
12664;BME280;6396;58.490;15.528;2023-03-01T07:24:33;102149.16;;;7.25;100.00
12664;BME280;6396;58.490;15.528;2023-03-01T07:27:00;102163.28;;;8.17;100.00
12664;BME280;6396;58.490;15.528;2023-03-01T07:29:26;102210.25;;;8.72;100.00
12664;BME280;6396;58.490;15.528;2023-03-01T07:31:55;102187.75;;;9.27;100.00
12664;BME280;6396;58.490;15.528;2023-03-01T07:34:22;101912.47;;;8.21;100.00
12664;BME280;6396;58.490;15.528;2023-03-01T07:36:49;102241.59;;;9.96;100.00
12664;BME280;6396;58.490;15.528;2023-03-01T07:39:15;102104.41;;;10.07;100.00
12664;BME280;6396;58.490;15.528;2023-03-01T07:41:42;101912.72;;;9.08;100.00
12664;BME280;6396;58.490;15.528;2023-03-01T07:44:09;101916.25;;;9.30;100.00
12664;BME280;6396;58.490;15.528;2023-03-01T07:46:36;102172.94;;;10.97;100.00
12664;BME280;6396;58.490;15.528;2023-03-01T07:49:04;102076.03;;;10.99;99.53
12664;BME280;6396;58.490;15.528;2023-03-01T07:51:31;101776.59;;;9.24;97.45
12664;BME280;6396;58.490;15.528;2023-03-01T07:53:58;102023.94;;;11.18;96.90
12664;BME280;6396;58.490;15.528;2023-03-01T07:56:24;102088.03;;;11.67;94.36
12664;BME280;6396;58.490;15.528;2023-03-01T07:58:51;102142.25;;;12.26;90.52
12664;BME280;6396;58.490;15.528;2023-03-01T08:01:20;102024.34;;;11.89;81.43
12664;BME280;6396;58.490;15.528;2023-03-01T08:03:47;102138.38;;;12.65;87.05
12664;BME280;6396;58.490;15.528;2023-03-01T08:06:16;101894.53;;;11.01;79.09
12664;BME280;6396;58.490;15.528;2023-03-01T08:08:44;102158.34;;;12.04;82.02
12664;BME280;6396;58.490;15.528;2023-03-01T08:11:12;102133.81;;;11.76;81.11
12664;BME280;6396;58.490;15.528;2023-03-01T08:13:39;101418.78;;;6.49;83.72
12664;BME280;6396;58.490;15.528;2023-03-01T08:16:08;101896.66;;;8.13;94.98
12664;BME280;6396;58.490;15.528;2023-03-01T08:18:35;102158.72;;;9.21;100.00
12664;BME280;6396;58.490;15.528;2023-03-01T08:21:03;101733.13;;;7.03;100.00
12664;BME280;6396;58.490;15.528;2023-03-01T08:23:31;101568.25;;;6.39;100.00
12664;BME280;6396;58.490;15.528;2023-03-01T08:26:06;102136.00;;;9.62;98.97
12664;BME280;6396;58.490;15.528;2023-03-01T08:28:33;102163.28;;;9.70;100.00
12664;BME280;6396;58.490;15.528;2023-03-01T08:31:00;101762.34;;;7.65;100.00
12664;BME280;6396;58.490;15.528;2023-03-01T08:33:27;102134.28;;;9.91;100.00
12664;BME280;6396;58.490;15.528;2023-03-01T08:36:02;102158.91;;;9.79;98.01
12664;BME280;6396;58.490;15.528;2023-03-01T08:38:30;102069.03;;;8.93;100.00
12664;BME280;6396;58.490;15.528;2023-03-01T08:40:59;102005.84;;;9.09;100.00
12664;BME280;6396;58.490;15.528;2023-03-01T08:43:26;101436.81;;;5.83;100.00
12664;BME280;6396;58.490;15.528;2023-03-01T08:45:53;102112.34;;;10.11;100.00
12664;BME280;6396;58.490;15.528;2023-03-01T08:48:20;102062.19;;;10.11;100.00
12664;BME280;6396;58.490;15.528;2023-03-01T08:50:46;101975.13;;;9.65;100.00
12664;BME280;6396;58.490;15.528;2023-03-01T08:53:13;102116.69;;;10.53;100.00
12664;BME280;6396;58.490;15.528;2023-03-01T08:55:42;101991.81;;;9.94;97.99
12664;BME280;6396;58.490;15.528;2023-03-01T08:58:08;102108.78;;;10.56;98.09
12664;BME280;6396;58.490;15.528;2023-03-01T09:00:35;102121.09;;;10.56;98.05
12664;BME280;6396;58.490;15.528;2023-03-01T09:03:02;101994.47;;;9.73;91.33
12664;BME280;6396;58.490;15.528;2023-03-01T09:05:31;101866.19;;;9.07;83.95
12664;BME280;6396;58.490;15.528;2023-03-01T09:07:58;101701.13;;;8.16;90.92
12664;BME280;6396;58.490;15.528;2023-03-01T09:10:25;102025.22;;;9.87;90.46
12664;BME280;6396;58.490;15.528;2023-03-01T09:12:53;102164.25;;;10.58;94.66
12664;BME280;6396;58.490;15.528;2023-03-01T09:15:20;101818.78;;;8.72;98.44
12664;BME280;6396;58.490;15.528;2023-03-01T09:17:46;102197.69;;;10.32;99.50
12664;BME280;6396;58.490;15.528;2023-03-01T09:20:13;101857.41;;;8.97;100.00
12664;BME280;6396;58.490;15.528;2023-03-01T09:22:40;101847.75;;;8.84;100.00
12664;BME280;6396;58.490;15.528;2023-03-01T09:25:07;101791.53;;;9.22;92.69
12664;BME280;6396;58.490;15.528;2023-03-01T09:27:35;101940.53;;;10.73;99.02
12664;BME280;6396;58.490;15.528;2023-03-01T09:30:03;102141.25;;;12.43;85.20
12664;BME280;6396;58.490;15.528;2023-03-01T09:32:31;101828.97;;;11.40;85.15
12664;BME280;6396;58.490;15.528;2023-03-01T09:34:57;101929.16;;;11.80;79.86
12664;BME280;6396;58.490;15.528;2023-03-01T09:37:30;101876.63;;;12.20;76.44
12664;BME280;6396;58.490;15.528;2023-03-01T09:39:57;101813.00;;;12.23;68.10
12664;BME280;6396;58.490;15.528;2023-03-01T09:42:25;101684.00;;;11.73;64.66
12664;BME280;6396;58.490;15.528;2023-03-01T09:44:57;101640.19;;;12.12;63.88
12664;BME280;6396;58.490;15.528;2023-03-01T09:47:29;102001.00;;;14.08;58.88
12664;BME280;6396;58.490;15.528;2023-03-01T09:50:02;102124.06;;;15.08;59.27
12664;BME280;6396;58.490;15.528;2023-03-01T09:52:35;101718.97;;;12.54;58.14
12664;BME280;6396;58.490;15.528;2023-03-01T09:55:09;102097.34;;;14.68;58.21
12664;BME280;6396;58.490;15.528;2023-03-01T09:57:43;101834.59;;;13.14;57.63
12664;BME280;6396;58.490;15.528;2023-03-01T10:00:30;102091.38;;;14.05;53.67
12664;BME280;6396;58.490;15.528;2023-03-01T10:03:10;102107.53;;;13.93;55.38
12664;BME280;6396;58.490;15.528;2023-03-01T10:05:43;101647.56;;;11.27;55.25
12664;BME280;6396;58.490;15.528;2023-03-01T10:08:27;102038.66;;;13.25;58.56
12664;BME280;6396;58.490;15.528;2023-03-01T10:10:57;101813.59;;;11.81;58.62
12664;BME280;6396;58.490;15.528;2023-03-01T10:13:27;101562.81;;;9.72;60.06
12664;BME280;6396;58.490;15.528;2023-03-01T10:16:00;101813.75;;;10.66;63.78
12664;BME280;6396;58.490;15.528;2023-03-01T10:18:31;101783.38;;;9.97;69.05
12664;BME280;6396;58.490;15.528;2023-03-01T10:21:09;101569.59;;;8.35;69.43
12664;BME280;6396;58.490;15.528;2023-03-01T10:23:38;101987.34;;;10.35;74.32
12664;BME280;6396;58.490;15.528;2023-03-01T10:26:12;102099.91;;;10.78;78.72
12664;BME280;6396;58.490;15.528;2023-03-01T10:28:51;101559.94;;;7.63;75.72
12664;BME280;6396;58.490;15.528;2023-03-01T10:31:24;101597.66;;;7.89;74.37
12664;BME280;6396;58.490;15.528;2023-03-01T10:33:56;102044.38;;;10.83;78.28
12664;BME280;6396;58.490;15.528;2023-03-01T10:36:24;101856.44;;;9.75;75.87
12664;BME280;6396;58.490;15.528;2023-03-01T10:38:52;101945.94;;;10.49;73.25
12664;BME280;6396;58.490;15.528;2023-03-01T10:41:20;101772.66;;;10.27;79.09
12664;BME280;6396;58.490;15.528;2023-03-01T10:43:50;101783.19;;;10.32;77.97
12664;BME280;6396;58.490;15.528;2023-03-01T10:46:26;101643.09;;;9.17;73.15
12664;BME280;6396;58.490;15.528;2023-03-01T10:49:15;101509.03;;;8.55;73.72
12664;BME280;6396;58.490;15.528;2023-03-01T10:51:44;101879.13;;;10.34;74.54
12664;BME280;6396;58.490;15.528;2023-03-01T10:54:24;102056.16;;;11.82;71.14
12664;BME280;6396;58.490;15.528;2023-03-01T10:56:53;102031.00;;;11.19;80.65
12664;BME280;6396;58.490;15.528;2023-03-01T10:59:26;101760.63;;;9.70;78.16
12664;BME280;6396;58.490;15.528;2023-03-01T11:02:14;102063.66;;;11.10;80.25
12664;BME280;6396;58.490;15.528;2023-03-01T11:04:56;101623.06;;;8.09;79.24
12664;BME280;6396;58.490;15.528;2023-03-01T11:07:23;101493.38;;;7.64;82.80
12664;BME280;6396;58.490;15.528;2023-03-01T11:09:50;101541.56;;;7.95;83.75
12664;BME280;6396;58.490;15.528;2023-03-01T11:12:17;101965.28;;;10.47;86.27
12664;BME280;6396;58.490;15.528;2023-03-01T11:14:47;101760.75;;;9.30;90.00
12664;BME280;6396;58.490;15.528;2023-03-01T11:17:19;102083.13;;;10.93;88.09
12664;BME280;6396;58.490;15.528;2023-03-01T11:20:01;101925.84;;;9.94;85.75
12664;BME280;6396;58.490;15.528;2023-03-01T11:22:30;101906.38;;;10.33;91.69
12664;BME280;6396;58.490;15.528;2023-03-01T11:24:59;102043.28;;;11.27;86.70
12664;BME280;6396;58.490;15.528;2023-03-01T11:27:31;102077.63;;;11.37;83.28
12664;BME280;6396;58.490;15.528;2023-03-01T11:30:02;101893.91;;;10.63;89.15
12664;BME280;6396;58.490;15.528;2023-03-01T11:32:35;102037.78;;;11.67;78.78
12664;BME280;6396;58.490;15.528;2023-03-01T11:35:10;102117.97;;;11.73;86.38
12664;BME280;6396;58.490;15.528;2023-03-01T11:37:44;101937.53;;;11.21;84.67
12664;BME280;6396;58.490;15.528;2023-03-01T11:40:23;101888.19;;;11.22;78.33
12664;BME280;6396;58.490;15.528;2023-03-01T11:43:01;101773.38;;;10.52;76.99
12664;BME280;6396;58.490;15.528;2023-03-01T11:45:38;101953.81;;;11.84;83.96
12664;BME280;6396;58.490;15.528;2023-03-01T11:48:24;101940.72;;;11.70;77.82
12664;BME280;6396;58.490;15.528;2023-03-01T11:50:57;102050.09;;;12.60;74.37
12664;BME280;6396;58.490;15.528;2023-03-01T11:53:47;101902.47;;;11.98;70.54
12664;BME280;6396;58.490;15.528;2023-03-01T11:56:26;101935.66;;;12.29;67.41
12664;BME280;6396;58.490;15.528;2023-03-01T11:59:19;101959.06;;;12.64;72.77
12664;BME280;6396;58.490;15.528;2023-03-01T12:02:28;101882.75;;;12.23;70.43
12664;BME280;6396;58.490;15.528;2023-03-01T12:08:10;101859.03;;;12.14;70.74
12664;BME280;6396;58.490;15.528;2023-03-01T12:10:44;101946.41;;;12.84;71.50
12664;BME280;6396;58.490;15.528;2023-03-01T12:13:45;101999.91;;;13.16;68.67
12664;BME280;6396;58.490;15.528;2023-03-01T12:16:23;101956.16;;;12.81;63.98
12664;BME280;6396;58.490;15.528;2023-03-01T12:19:08;101999.28;;;12.93;58.99
12664;BME280;6396;58.490;15.528;2023-03-01T12:21:53;101663.72;;;11.01;69.86
12664;BME280;6396;58.490;15.528;2023-03-01T12:27:47;101732.75;;;11.51;62.54
12664;BME280;6396;58.490;15.528;2023-03-01T12:30:30;101928.97;;;12.68;59.53
12664;BME280;6396;58.490;15.528;2023-03-01T12:33:11;101718.31;;;11.03;70.01
12664;BME280;6396;58.490;15.528;2023-03-01T12:35:54;101909.72;;;12.53;67.37
12664;BME280;6396;58.490;15.528;2023-03-01T12:38:32;101502.25;;;9.60;67.43
12664;BME280;6396;58.490;15.528;2023-03-01T12:41:26;101659.47;;;10.86;64.25
12664;BME280;6396;58.490;15.528;2023-03-01T12:44:06;101817.50;;;11.44;68.61
12664;BME280;6396;58.490;15.528;2023-03-01T12:46:45;101908.56;;;12.06;64.58
12664;BME280;6396;58.490;15.528;2023-03-01T12:49:21;101811.97;;;11.68;66.21
12664;BME280;6396;58.490;15.528;2023-03-01T12:51:54;101715.84;;;10.85;67.78
12664;BME280;6396;58.490;15.528;2023-03-01T12:54:27;101760.84;;;10.75;68.77
12664;BME280;6396;58.490;15.528;2023-03-01T12:56:55;101545.16;;;9.83;69.94
12664;BME280;6396;58.490;15.528;2023-03-01T12:59:32;101905.22;;;11.88;71.50
12664;BME280;6396;58.490;15.528;2023-03-01T13:02:08;101977.28;;;12.17;70.02
12664;BME280;6396;58.490;15.528;2023-03-01T13:04:56;101710.84;;;10.55;63.71
12664;BME280;6396;58.490;15.528;2023-03-01T13:07:30;101885.03;;;11.78;72.70
12664;BME280;6396;58.490;15.528;2023-03-01T13:10:16;101584.72;;;9.81;71.26
12664;BME280;6396;58.490;15.528;2023-03-01T13:12:50;101936.81;;;12.06;77.85
12664;BME280;6396;58.490;15.528;2023-03-01T13:15:30;101560.97;;;9.83;68.35
12664;BME280;6396;58.490;15.528;2023-03-01T13:17:58;101710.09;;;10.40;74.60